sensor_id;sensor_type;location;lat;lon;timestamp;P1;durP1;ratioP1;P2;durP2;ratioP2
5752;SDS011;2901;42.140;24.760;2022-07-22T00:01:38;9.35;;;4.57;;
5752;SDS011;2901;42.140;24.760;2022-07-22T00:04:04;3.80;;;3.50;;
5752;SDS011;2901;42.140;24.760;2022-07-22T00:06:29;9.35;;;3.63;;
5752;SDS011;2901;42.140;24.760;2022-07-22T00:08:55;4.47;;;3.85;;
5752;SDS011;2901;42.140;24.760;2022-07-22T00:11:21;4.07;;;3.88;;
5752;SDS011;2901;42.140;24.760;2022-07-22T00:13:47;3.70;;;3.40;;
5752;SDS011;2901;42.140;24.760;2022-07-22T00:16:13;6.68;;;3.78;;
5752;SDS011;2901;42.140;24.760;2022-07-22T00:18:38;4.25;;;4.05;;
5752;SDS011;2901;42.140;24.760;2022-07-22T00:21:04;7.43;;;3.58;;
5752;SDS011;2901;42.140;24.760;2022-07-22T00:23:30;4.00;;;3.60;;
5752;SDS011;2901;42.140;24.760;2022-07-22T00:25:55;4.50;;;3.88;;
5752;SDS011;2901;42.140;24.760;2022-07-22T00:28:21;10.23;;;4.10;;
5752;SDS011;2901;42.140;24.760;2022-07-22T00:30:46;4.57;;;4.20;;
5752;SDS011;2901;42.140;24.760;2022-07-22T00:33:12;5.13;;;4.60;;
5752;SDS011;2901;42.140;24.760;2022-07-22T00:35:37;5.13;;;4.50;;
5752;SDS011;2901;42.140;24.760;2022-07-22T00:38:02;6.20;;;4.15;;
5752;SDS011;2901;42.140;24.760;2022-07-22T00:40:28;7.53;;;4.28;;
5752;SDS011;2901;42.140;24.760;2022-07-22T00:42:53;4.25;;;3.95;;
5752;SDS011;2901;42.140;24.760;2022-07-22T00:45:19;4.30;;;3.80;;
5752;SDS011;2901;42.140;24.760;2022-07-22T00:47:44;4.10;;;3.83;;
5752;SDS011;2901;42.140;24.760;2022-07-22T00:50:10;5.05;;;4.72;;
5752;SDS011;2901;42.140;24.760;2022-07-22T00:52:36;5.10;;;4.50;;
5752;SDS011;2901;42.140;24.760;2022-07-22T00:55:04;6.28;;;5.35;;
5752;SDS011;2901;42.140;24.760;2022-07-22T00:57:30;4.88;;;4.57;;
5752;SDS011;2901;42.140;24.760;2022-07-22T00:59:56;4.60;;;4.13;;
5752;SDS011;2901;42.140;24.760;2022-07-22T01:02:22;9.35;;;5.15;;
5752;SDS011;2901;42.140;24.760;2022-07-22T01:04:47;4.88;;;4.47;;
5752;SDS011;2901;42.140;24.760;2022-07-22T01:07:13;10.52;;;5.13;;
5752;SDS011;2901;42.140;24.760;2022-07-22T01:09:41;5.03;;;4.18;;
5752;SDS011;2901;42.140;24.760;2022-07-22T01:12:08;5.45;;;4.53;;
5752;SDS011;2901;42.140;24.760;2022-07-22T01:14:34;6.55;;;4.57;;
5752;SDS011;2901;42.140;24.760;2022-07-22T01:16:59;4.72;;;3.97;;
5752;SDS011;2901;42.140;24.760;2022-07-22T01:19:25;5.07;;;4.10;;
5752;SDS011;2901;42.140;24.760;2022-07-22T01:21:50;5.43;;;4.95;;
5752;SDS011;2901;42.140;24.760;2022-07-22T01:24:15;4.70;;;4.35;;
5752;SDS011;2901;42.140;24.760;2022-07-22T01:26:41;8.57;;;4.80;;
5752;SDS011;2901;42.140;24.760;2022-07-22T01:29:07;5.22;;;4.35;;
5752;SDS011;2901;42.140;24.760;2022-07-22T01:31:32;10.30;;;4.45;;
5752;SDS011;2901;42.140;24.760;2022-07-22T01:33:58;4.38;;;3.67;;
5752;SDS011;2901;42.140;24.760;2022-07-22T01:36:23;5.57;;;4.13;;
5752;SDS011;2901;42.140;24.760;2022-07-22T01:38:50;4.32;;;3.90;;
5752;SDS011;2901;42.140;24.760;2022-07-22T01:41:16;4.68;;;4.13;;
5752;SDS011;2901;42.140;24.760;2022-07-22T01:43:42;4.60;;;4.30;;
5752;SDS011;2901;42.140;24.760;2022-07-22T01:46:07;4.40;;;4.10;;
5752;SDS011;2901;42.140;24.760;2022-07-22T01:48:33;3.70;;;3.40;;
5752;SDS011;2901;42.140;24.760;2022-07-22T01:50:58;7.28;;;3.78;;
5752;SDS011;2901;42.140;24.760;2022-07-22T01:53:24;8.18;;;4.18;;
5752;SDS011;2901;42.140;24.760;2022-07-22T01:55:49;11.15;;;4.00;;
5752;SDS011;2901;42.140;24.760;2022-07-22T01:58:15;7.70;;;3.97;;
5752;SDS011;2901;42.140;24.760;2022-07-22T02:00:41;5.80;;;3.50;;
5752;SDS011;2901;42.140;24.760;2022-07-22T02:03:07;4.28;;;3.88;;
5752;SDS011;2901;42.140;24.760;2022-07-22T02:05:33;4.93;;;4.18;;
5752;SDS011;2901;42.140;24.760;2022-07-22T02:08:02;5.45;;;3.50;;
5752;SDS011;2901;42.140;24.760;2022-07-22T02:10:29;7.65;;;4.30;;
5752;SDS011;2901;42.140;24.760;2022-07-22T02:12:56;6.32;;;4.35;;
5752;SDS011;2901;42.140;24.760;2022-07-22T02:15:22;4.65;;;3.17;;
5752;SDS011;2901;42.140;24.760;2022-07-22T02:17:47;9.60;;;3.42;;
5752;SDS011;2901;42.140;24.760;2022-07-22T02:20:13;8.52;;;4.10;;
5752;SDS011;2901;42.140;24.760;2022-07-22T02:22:38;6.85;;;4.25;;
5752;SDS011;2901;42.140;24.760;2022-07-22T02:25:04;8.48;;;4.10;;
5752;SDS011;2901;42.140;24.760;2022-07-22T02:27:30;5.47;;;4.15;;
5752;SDS011;2901;42.140;24.760;2022-07-22T02:29:55;4.70;;;4.35;;
5752;SDS011;2901;42.140;24.760;2022-07-22T02:32:20;10.40;;;5.25;;
5752;SDS011;2901;42.140;24.760;2022-07-22T02:34:46;7.63;;;4.55;;
5752;SDS011;2901;42.140;24.760;2022-07-22T02:37:11;4.90;;;4.18;;
5752;SDS011;2901;42.140;24.760;2022-07-22T02:39:37;5.00;;;4.05;;
5752;SDS011;2901;42.140;24.760;2022-07-22T02:42:03;5.43;;;5.00;;
5752;SDS011;2901;42.140;24.760;2022-07-22T02:44:28;4.70;;;4.25;;
5752;SDS011;2901;42.140;24.760;2022-07-22T02:46:53;9.02;;;4.55;;
5752;SDS011;2901;42.140;24.760;2022-07-22T02:49:19;8.07;;;4.82;;
5752;SDS011;2901;42.140;24.760;2022-07-22T02:51:44;8.88;;;4.78;;
5752;SDS011;2901;42.140;24.760;2022-07-22T02:54:10;5.28;;;4.40;;
5752;SDS011;2901;42.140;24.760;2022-07-22T02:56:35;7.55;;;4.65;;
5752;SDS011;2901;42.140;24.760;2022-07-22T02:59:01;6.13;;;4.55;;
5752;SDS011;2901;42.140;24.760;2022-07-22T03:01:27;4.75;;;4.38;;
5752;SDS011;2901;42.140;24.760;2022-07-22T03:03:52;9.32;;;4.80;;
5752;SDS011;2901;42.140;24.760;2022-07-22T03:06:17;4.95;;;4.55;;
5752;SDS011;2901;42.140;24.760;2022-07-22T03:08:43;4.95;;;4.40;;
5752;SDS011;2901;42.140;24.760;2022-07-22T03:11:08;5.45;;;4.60;;
5752;SDS011;2901;42.140;24.760;2022-07-22T03:13:34;13.70;;;5.50;;
5752;SDS011;2901;42.140;24.760;2022-07-22T03:15:59;10.63;;;5.18;;
5752;SDS011;2901;42.140;24.760;2022-07-22T03:18:25;14.35;;;5.57;;
5752;SDS011;2901;42.140;24.760;2022-07-22T03:20:50;8.98;;;4.97;;
5752;SDS011;2901;42.140;24.760;2022-07-22T03:23:15;6.97;;;5.25;;
5752;SDS011;2901;42.140;24.760;2022-07-22T03:25:41;5.63;;;5.10;;
5752;SDS011;2901;42.140;24.760;2022-07-22T03:28:06;12.73;;;5.40;;
5752;SDS011;2901;42.140;24.760;2022-07-22T03:30:32;8.52;;;4.88;;
5752;SDS011;2901;42.140;24.760;2022-07-22T03:32:58;16.20;;;6.55;;
5752;SDS011;2901;42.140;24.760;2022-07-22T03:35:23;8.35;;;6.00;;
5752;SDS011;2901;42.140;24.760;2022-07-22T03:37:49;11.13;;;5.47;;
5752;SDS011;2901;42.140;24.760;2022-07-22T03:40:14;17.58;;;6.10;;
5752;SDS011;2901;42.140;24.760;2022-07-22T03:42:40;23.83;;;6.90;;
5752;SDS011;2901;42.140;24.760;2022-07-22T03:45:05;8.50;;;5.05;;
5752;SDS011;2901;42.140;24.760;2022-07-22T03:47:31;8.82;;;6.43;;
5752;SDS011;2901;42.140;24.760;2022-07-22T03:49:56;5.70;;;5.15;;
5752;SDS011;2901;42.140;24.760;2022-07-22T03:52:23;10.48;;;5.68;;
5752;SDS011;2901;42.140;24.760;2022-07-22T03:54:49;11.38;;;7.32;;
5752;SDS011;2901;42.140;24.760;2022-07-22T03:57:15;10.45;;;6.40;;
5752;SDS011;2901;42.140;24.760;2022-07-22T03:59:40;6.22;;;5.65;;
5752;SDS011;2901;42.140;24.760;2022-07-22T04:02:06;9.35;;;6.28;;
5752;SDS011;2901;42.140;24.760;2022-07-22T04:04:31;14.68;;;6.10;;
5752;SDS011;2901;42.140;24.760;2022-07-22T04:06:56;6.45;;;5.88;;
5752;SDS011;2901;42.140;24.760;2022-07-22T04:09:22;6.88;;;5.93;;
5752;SDS011;2901;42.140;24.760;2022-07-22T04:11:47;9.48;;;5.93;;
5752;SDS011;2901;42.140;24.760;2022-07-22T04:14:15;13.50;;;6.45;;
5752;SDS011;2901;42.140;24.760;2022-07-22T04:16:41;8.88;;;6.32;;
5752;SDS011;2901;42.140;24.760;2022-07-22T04:19:08;19.70;;;7.85;;
5752;SDS011;2901;42.140;24.760;2022-07-22T04:21:34;21.80;;;8.18;;
5752;SDS011;2901;42.140;24.760;2022-07-22T04:24:00;22.35;;;8.38;;
5752;SDS011;2901;42.140;24.760;2022-07-22T04:26:25;15.55;;;8.68;;
5752;SDS011;2901;42.140;24.760;2022-07-22T04:28:51;21.50;;;8.32;;
5752;SDS011;2901;42.140;24.760;2022-07-22T04:31:16;18.48;;;7.97;;
5752;SDS011;2901;42.140;24.760;2022-07-22T04:33:41;24.92;;;7.60;;
5752;SDS011;2901;42.140;24.760;2022-07-22T04:36:07;25.92;;;8.95;;
5752;SDS011;2901;42.140;24.760;2022-07-22T04:38:32;24.70;;;8.70;;
5752;SDS011;2901;42.140;24.760;2022-07-22T04:40:58;21.98;;;9.52;;
5752;SDS011;2901;42.140;24.760;2022-07-22T04:43:23;9.57;;;7.57;;
5752;SDS011;2901;42.140;24.760;2022-07-22T04:45:49;14.98;;;8.18;;
5752;SDS011;2901;42.140;24.760;2022-07-22T04:48:15;19.77;;;8.55;;
5752;SDS011;2901;42.140;24.760;2022-07-22T04:50:41;19.08;;;8.65;;
5752;SDS011;2901;42.140;24.760;2022-07-22T04:53:06;17.42;;;8.60;;
5752;SDS011;2901;42.140;24.760;2022-07-22T04:55:32;9.63;;;8.15;;
5752;SDS011;2901;42.140;24.760;2022-07-22T04:57:57;16.63;;;8.82;;
5752;SDS011;2901;42.140;24.760;2022-07-22T05:00:22;22.10;;;9.48;;
5752;SDS011;2901;42.140;24.760;2022-07-22T05:02:49;27.20;;;9.18;;
5752;SDS011;2901;42.140;24.760;2022-07-22T05:05:14;16.52;;;8.73;;
5752;SDS011;2901;42.140;24.760;2022-07-22T05:07:40;16.25;;;8.82;;
5752;SDS011;2901;42.140;24.760;2022-07-22T05:10:06;12.43;;;8.40;;
5752;SDS011;2901;42.140;24.760;2022-07-22T05:12:31;10.13;;;8.38;;
5752;SDS011;2901;42.140;24.760;2022-07-22T05:14:57;11.18;;;8.38;;
5752;SDS011;2901;42.140;24.760;2022-07-22T05:17:23;16.60;;;9.07;;
5752;SDS011;2901;42.140;24.760;2022-07-22T05:19:48;11.98;;;9.68;;
5752;SDS011;2901;42.140;24.760;2022-07-22T05:22:13;17.08;;;9.95;;
5752;SDS011;2901;42.140;24.760;2022-07-22T05:24:39;21.38;;;9.68;;
5752;SDS011;2901;42.140;24.760;2022-07-22T05:27:04;19.85;;;9.57;;
5752;SDS011;2901;42.140;24.760;2022-07-22T05:29:30;21.02;;;10.10;;
5752;SDS011;2901;42.140;24.760;2022-07-22T05:31:56;16.42;;;9.10;;
5752;SDS011;2901;42.140;24.760;2022-07-22T05:34:21;16.23;;;8.90;;
5752;SDS011;2901;42.140;24.760;2022-07-22T05:36:47;14.20;;;9.32;;
5752;SDS011;2901;42.140;24.760;2022-07-22T05:39:13;17.58;;;8.82;;
5752;SDS011;2901;42.140;24.760;2022-07-22T05:41:38;16.77;;;9.13;;
5752;SDS011;2901;42.140;24.760;2022-07-22T05:44:04;23.00;;;9.77;;
5752;SDS011;2901;42.140;24.760;2022-07-22T05:46:30;16.83;;;8.43;;
5752;SDS011;2901;42.140;24.760;2022-07-22T05:48:56;15.32;;;9.63;;
5752;SDS011;2901;42.140;24.760;2022-07-22T05:51:21;19.38;;;9.50;;
5752;SDS011;2901;42.140;24.760;2022-07-22T05:53:47;11.07;;;9.70;;
5752;SDS011;2901;42.140;24.760;2022-07-22T05:56:13;18.48;;;11.18;;
5752;SDS011;2901;42.140;24.760;2022-07-22T05:58:39;17.45;;;10.98;;
5752;SDS011;2901;42.140;24.760;2022-07-22T06:01:06;27.63;;;11.77;;
5752;SDS011;2901;42.140;24.760;2022-07-22T06:03:32;26.65;;;11.20;;
5752;SDS011;2901;42.140;24.760;2022-07-22T06:05:58;12.93;;;11.02;;
5752;SDS011;2901;42.140;24.760;2022-07-22T06:08:26;36.35;;;12.55;;
5752;SDS011;2901;42.140;24.760;2022-07-22T06:10:52;25.38;;;12.60;;
5752;SDS011;2901;42.140;24.760;2022-07-22T06:13:17;26.63;;;11.05;;
5752;SDS011;2901;42.140;24.760;2022-07-22T06:15:43;24.25;;;11.50;;
5752;SDS011;2901;42.140;24.760;2022-07-22T06:18:09;21.30;;;12.05;;
5752;SDS011;2901;42.140;24.760;2022-07-22T06:20:35;27.80;;;12.20;;
5752;SDS011;2901;42.140;24.760;2022-07-22T06:23:00;20.20;;;11.18;;
5752;SDS011;2901;42.140;24.760;2022-07-22T06:25:26;25.75;;;11.48;;
5752;SDS011;2901;42.140;24.760;2022-07-22T06:27:51;14.35;;;9.57;;
5752;SDS011;2901;42.140;24.760;2022-07-22T06:30:17;13.48;;;9.05;;
5752;SDS011;2901;42.140;24.760;2022-07-22T06:32:43;10.20;;;8.93;;
5752;SDS011;2901;42.140;24.760;2022-07-22T06:35:08;14.88;;;9.15;;
5752;SDS011;2901;42.140;24.760;2022-07-22T06:37:34;23.23;;;9.93;;
5752;SDS011;2901;42.140;24.760;2022-07-22T06:40:00;19.40;;;9.93;;
5752;SDS011;2901;42.140;24.760;2022-07-22T06:42:25;11.73;;;9.52;;
5752;SDS011;2901;42.140;24.760;2022-07-22T06:44:51;9.57;;;8.57;;
5752;SDS011;2901;42.140;24.760;2022-07-22T06:47:17;12.15;;;9.80;;
5752;SDS011;2901;42.140;24.760;2022-07-22T06:49:42;8.82;;;8.18;;
5752;SDS011;2901;42.140;24.760;2022-07-22T06:52:07;9.30;;;7.40;;
5752;SDS011;2901;42.140;24.760;2022-07-22T06:54:33;7.50;;;6.85;;
5752;SDS011;2901;42.140;24.760;2022-07-22T06:56:58;7.85;;;7.20;;
5752;SDS011;2901;42.140;24.760;2022-07-22T06:59:24;11.07;;;7.45;;
5752;SDS011;2901;42.140;24.760;2022-07-22T07:01:49;12.90;;;7.70;;
5752;SDS011;2901;42.140;24.760;2022-07-22T07:04:15;7.63;;;6.40;;
5752;SDS011;2901;42.140;24.760;2022-07-22T07:06:41;8.73;;;6.30;;
5752;SDS011;2901;42.140;24.760;2022-07-22T07:09:07;8.82;;;7.03;;
5752;SDS011;2901;42.140;24.760;2022-07-22T07:11:32;17.80;;;7.32;;
5752;SDS011;2901;42.140;24.760;2022-07-22T07:13:58;7.97;;;7.15;;
5752;SDS011;2901;42.140;24.760;2022-07-22T07:16:23;8.40;;;7.25;;
5752;SDS011;2901;42.140;24.760;2022-07-22T07:18:49;9.77;;;6.57;;
5752;SDS011;2901;42.140;24.760;2022-07-22T07:21:14;7.82;;;7.15;;
5752;SDS011;2901;42.140;24.760;2022-07-22T07:23:40;7.55;;;6.70;;
5752;SDS011;2901;42.140;24.760;2022-07-22T07:26:05;11.07;;;5.95;;
5752;SDS011;2901;42.140;24.760;2022-07-22T07:28:31;7.03;;;6.38;;
5752;SDS011;2901;42.140;24.760;2022-07-22T07:30:56;6.85;;;6.22;;
5752;SDS011;2901;42.140;24.760;2022-07-22T07:33:22;7.40;;;6.72;;
5752;SDS011;2901;42.140;24.760;2022-07-22T07:35:47;6.82;;;6.15;;
5752;SDS011;2901;42.140;24.760;2022-07-22T07:38:13;6.90;;;5.97;;
5752;SDS011;2901;42.140;24.760;2022-07-22T07:40:38;6.55;;;5.97;;
5752;SDS011;2901;42.140;24.760;2022-07-22T07:43:04;8.07;;;6.53;;
5752;SDS011;2901;42.140;24.760;2022-07-22T07:45:30;12.65;;;5.68;;
5752;SDS011;2901;42.140;24.760;2022-07-22T07:47:56;9.48;;;6.25;;
5752;SDS011;2901;42.140;24.760;2022-07-22T07:50:22;9.70;;;6.90;;
5752;SDS011;2901;42.140;24.760;2022-07-22T07:52:47;12.10;;;6.90;;
5752;SDS011;2901;42.140;24.760;2022-07-22T07:55:13;6.80;;;6.32;;
5752;SDS011;2901;42.140;24.760;2022-07-22T07:57:39;7.78;;;6.38;;
5752;SDS011;2901;42.140;24.760;2022-07-22T08:00:06;14.40;;;6.68;;
5752;SDS011;2901;42.140;24.760;2022-07-22T08:02:34;6.65;;;6.10;;
5752;SDS011;2901;42.140;24.760;2022-07-22T08:04:59;7.65;;;6.28;;
5752;SDS011;2901;42.140;24.760;2022-07-22T08:07:26;6.47;;;5.97;;
5752;SDS011;2901;42.140;24.760;2022-07-22T08:09:51;10.23;;;6.10;;
5752;SDS011;2901;42.140;24.760;2022-07-22T08:12:17;6.80;;;6.13;;
5752;SDS011;2901;42.140;24.760;2022-07-22T08:14:42;7.07;;;6.30;;
5752;SDS011;2901;42.140;24.760;2022-07-22T08:17:07;12.40;;;6.00;;
5752;SDS011;2901;42.140;24.760;2022-07-22T08:19:33;6.60;;;6.18;;
5752;SDS011;2901;42.140;24.760;2022-07-22T08:21:58;8.10;;;6.55;;
5752;SDS011;2901;42.140;24.760;2022-07-22T08:24:24;7.75;;;6.45;;
5752;SDS011;2901;42.140;24.760;2022-07-22T08:26:49;7.70;;;6.43;;
5752;SDS011;2901;42.140;24.760;2022-07-22T08:29:15;11.60;;;6.38;;
5752;SDS011;2901;42.140;24.760;2022-07-22T08:31:40;7.15;;;6.70;;
5752;SDS011;2901;42.140;24.760;2022-07-22T08:34:06;6.65;;;6.22;;
5752;SDS011;2901;42.140;24.760;2022-07-22T08:36:31;8.75;;;6.47;;
5752;SDS011;2901;42.140;24.760;2022-07-22T08:38:57;8.60;;;6.80;;
5752;SDS011;2901;42.140;24.760;2022-07-22T08:41:23;7.47;;;6.25;;
5752;SDS011;2901;42.140;24.760;2022-07-22T08:43:49;6.93;;;6.25;;
5752;SDS011;2901;42.140;24.760;2022-07-22T08:46:16;6.90;;;6.38;;
5752;SDS011;2901;42.140;24.760;2022-07-22T08:48:42;8.48;;;6.25;;
5752;SDS011;2901;42.140;24.760;2022-07-22T08:51:07;6.35;;;5.93;;
5752;SDS011;2901;42.140;24.760;2022-07-22T08:53:33;8.48;;;5.85;;
5752;SDS011;2901;42.140;24.760;2022-07-22T08:55:59;7.38;;;6.45;;
5752;SDS011;2901;42.140;24.760;2022-07-22T08:58:25;10.50;;;7.18;;
5752;SDS011;2901;42.140;24.760;2022-07-22T09:01:07;11.48;;;6.40;;
5752;SDS011;2901;42.140;24.760;2022-07-22T09:03:43;10.10;;;6.00;;
5752;SDS011;2901;42.140;24.760;2022-07-22T09:06:28;10.40;;;6.25;;
5752;SDS011;2901;42.140;24.760;2022-07-22T09:08:59;7.07;;;6.25;;
5752;SDS011;2901;42.140;24.760;2022-07-22T09:11:27;9.82;;;6.38;;
5752;SDS011;2901;42.140;24.760;2022-07-22T09:13:55;8.52;;;7.40;;
5752;SDS011;2901;42.140;24.760;2022-07-22T09:16:37;10.68;;;7.28;;
5752;SDS011;2901;42.140;24.760;2022-07-22T09:19:13;7.65;;;6.95;;
5752;SDS011;2901;42.140;24.760;2022-07-22T09:21:40;12.25;;;6.95;;
5752;SDS011;2901;42.140;24.760;2022-07-22T09:24:07;8.23;;;6.80;;
5752;SDS011;2901;42.140;24.760;2022-07-22T09:26:34;7.50;;;6.68;;
5752;SDS011;2901;42.140;24.760;2022-07-22T09:29:03;6.82;;;6.10;;
5752;SDS011;2901;42.140;24.760;2022-07-22T09:31:30;8.32;;;6.68;;
5752;SDS011;2901;42.140;24.760;2022-07-22T09:34:00;8.00;;;7.20;;
5752;SDS011;2901;42.140;24.760;2022-07-22T09:36:27;12.07;;;7.57;;
5752;SDS011;2901;42.140;24.760;2022-07-22T09:38:52;8.73;;;7.43;;
5752;SDS011;2901;42.140;24.760;2022-07-22T09:41:18;7.13;;;6.63;;
5752;SDS011;2901;42.140;24.760;2022-07-22T09:43:44;10.23;;;7.22;;
5752;SDS011;2901;42.140;24.760;2022-07-22T09:46:10;10.02;;;6.97;;
5752;SDS011;2901;42.140;24.760;2022-07-22T09:48:36;7.63;;;6.93;;
5752;SDS011;2901;42.140;24.760;2022-07-22T09:51:03;14.60;;;7.40;;
5752;SDS011;2901;42.140;24.760;2022-07-22T09:53:29;10.40;;;8.00;;
5752;SDS011;2901;42.140;24.760;2022-07-22T09:55:55;12.77;;;6.93;;
5752;SDS011;2901;42.140;24.760;2022-07-22T09:58:22;10.73;;;7.80;;
5752;SDS011;2901;42.140;24.760;2022-07-22T10:00:48;8.40;;;7.68;;
5752;SDS011;2901;42.140;24.760;2022-07-22T10:03:18;8.73;;;7.05;;
5752;SDS011;2901;42.140;24.760;2022-07-22T10:05:48;10.82;;;7.63;;
5752;SDS011;2901;42.140;24.760;2022-07-22T10:08:14;7.53;;;6.75;;
5752;SDS011;2901;42.140;24.760;2022-07-22T10:10:40;11.48;;;7.13;;
5752;SDS011;2901;42.140;24.760;2022-07-22T10:13:06;10.77;;;7.18;;
5752;SDS011;2901;42.140;24.760;2022-07-22T10:15:34;9.50;;;7.30;;
5752;SDS011;2901;42.140;24.760;2022-07-22T10:18:01;15.98;;;7.97;;
5752;SDS011;2901;42.140;24.760;2022-07-22T10:20:31;13.43;;;8.57;;
5752;SDS011;2901;42.140;24.760;2022-07-22T10:22:58;8.50;;;7.88;;
5752;SDS011;2901;42.140;24.760;2022-07-22T10:25:26;12.40;;;9.25;;
5752;SDS011;2901;42.140;24.760;2022-07-22T10:30:30;12.35;;;10.18;;
5752;SDS011;2901;42.140;24.760;2022-07-22T10:33:06;24.95;;;9.63;;
5752;SDS011;2901;42.140;24.760;2022-07-22T10:38:20;12.98;;;9.00;;
5752;SDS011;2901;42.140;24.760;2022-07-22T10:40:47;9.32;;;8.52;;
5752;SDS011;2901;42.140;24.760;2022-07-22T10:46:07;8.95;;;8.18;;
5752;SDS011;2901;42.140;24.760;2022-07-22T10:51:19;12.02;;;9.27;;
5752;SDS011;2901;42.140;24.760;2022-07-22T10:53:54;13.27;;;7.90;;
5752;SDS011;2901;42.140;24.760;2022-07-22T11:01:24;9.25;;;7.75;;
5752;SDS011;2901;42.140;24.760;2022-07-22T11:03:55;12.50;;;8.70;;
5752;SDS011;2901;42.140;24.760;2022-07-22T11:06:31;10.45;;;7.57;;
5752;SDS011;2901;42.140;24.760;2022-07-22T11:09:01;7.65;;;6.90;;
5752;SDS011;2901;42.140;24.760;2022-07-22T11:11:32;8.18;;;7.47;;
5752;SDS011;2901;42.140;24.760;2022-07-22T11:13:58;8.07;;;7.40;;
5752;SDS011;2901;42.140;24.760;2022-07-22T11:16:25;6.80;;;6.22;;
5752;SDS011;2901;42.140;24.760;2022-07-22T11:18:53;7.13;;;6.47;;
5752;SDS011;2901;42.140;24.760;2022-07-22T11:21:20;7.88;;;6.63;;
5752;SDS011;2901;42.140;24.760;2022-07-22T11:23:51;8.07;;;7.03;;
5752;SDS011;2901;42.140;24.760;2022-07-22T11:26:20;8.23;;;6.93;;
5752;SDS011;2901;42.140;24.760;2022-07-22T11:28:57;7.22;;;6.50;;
5752;SDS011;2901;42.140;24.760;2022-07-22T11:31:22;7.80;;;7.10;;
5752;SDS011;2901;42.140;24.760;2022-07-22T11:33:47;6.90;;;6.13;;
5752;SDS011;2901;42.140;24.760;2022-07-22T11:36:13;9.30;;;6.40;;
5752;SDS011;2901;42.140;24.760;2022-07-22T11:38:46;7.35;;;6.38;;
5752;SDS011;2901;42.140;24.760;2022-07-22T11:41:14;12.77;;;6.55;;
5752;SDS011;2901;42.140;24.760;2022-07-22T11:43:47;12.25;;;7.22;;
5752;SDS011;2901;42.140;24.760;2022-07-22T11:46:15;6.63;;;6.15;;
5752;SDS011;2901;42.140;24.760;2022-07-22T11:48:42;6.72;;;5.43;;
5752;SDS011;2901;42.140;24.760;2022-07-22T11:51:09;6.03;;;5.55;;
5752;SDS011;2901;42.140;24.760;2022-07-22T11:53:37;6.68;;;6.03;;
5752;SDS011;2901;42.140;24.760;2022-07-22T11:56:04;7.75;;;6.72;;
5752;SDS011;2901;42.140;24.760;2022-07-22T12:01:04;9.07;;;6.25;;
5752;SDS011;2901;42.140;24.760;2022-07-22T12:03:31;6.32;;;5.80;;
5752;SDS011;2901;42.140;24.760;2022-07-22T12:05:58;8.35;;;6.97;;
5752;SDS011;2901;42.140;24.760;2022-07-22T12:08:24;5.57;;;5.00;;
5752;SDS011;2901;42.140;24.760;2022-07-22T12:10:50;6.93;;;4.60;;
5752;SDS011;2901;42.140;24.760;2022-07-22T12:13:15;5.35;;;4.85;;
5752;SDS011;2901;42.140;24.760;2022-07-22T12:15:41;4.82;;;4.53;;
5752;SDS011;2901;42.140;24.760;2022-07-22T12:18:16;4.40;;;4.00;;
5752;SDS011;2901;42.140;24.760;2022-07-22T12:20:47;4.78;;;4.30;;
5752;SDS011;2901;42.140;24.760;2022-07-22T12:23:13;4.85;;;4.47;;
5752;SDS011;2901;42.140;24.760;2022-07-22T12:28:30;5.28;;;3.33;;
5752;SDS011;2901;42.140;24.760;2022-07-22T12:30:56;4.25;;;3.85;;
5752;SDS011;2901;42.140;24.760;2022-07-22T12:33:22;4.90;;;3.58;;
5752;SDS011;2901;42.140;24.760;2022-07-22T12:35:57;4.18;;;3.88;;
5752;SDS011;2901;42.140;24.760;2022-07-22T12:38:30;8.10;;;4.25;;
5752;SDS011;2901;42.140;24.760;2022-07-22T12:40:57;4.38;;;3.85;;
5752;SDS011;2901;42.140;24.760;2022-07-22T12:43:49;4.85;;;3.33;;
5752;SDS011;2901;42.140;24.760;2022-07-22T12:46:16;3.72;;;3.30;;
5752;SDS011;2901;42.140;24.760;2022-07-22T12:48:51;4.75;;;3.67;;
5752;SDS011;2901;42.140;24.760;2022-07-22T12:51:18;12.75;;;3.55;;
5752;SDS011;2901;42.140;24.760;2022-07-22T12:53:44;3.85;;;3.30;;
5752;SDS011;2901;42.140;24.760;2022-07-22T12:56:09;3.63;;;3.38;;
5752;SDS011;2901;42.140;24.760;2022-07-22T12:58:36;5.90;;;3.45;;
5752;SDS011;2901;42.140;24.760;2022-07-22T13:01:05;3.65;;;3.35;;
5752;SDS011;2901;42.140;24.760;2022-07-22T13:03:30;3.33;;;3.10;;
5752;SDS011;2901;42.140;24.760;2022-07-22T13:05:58;3.63;;;3.33;;
5752;SDS011;2901;42.140;24.760;2022-07-22T13:08:25;4.47;;;4.05;;
5752;SDS011;2901;42.140;24.760;2022-07-22T13:10:52;3.75;;;3.10;;
5752;SDS011;2901;42.140;24.760;2022-07-22T13:13:19;6.18;;;3.30;;
5752;SDS011;2901;42.140;24.760;2022-07-22T13:15:45;3.80;;;3.50;;
5752;SDS011;2901;42.140;24.760;2022-07-22T13:18:11;3.30;;;3.10;;
5752;SDS011;2901;42.140;24.760;2022-07-22T13:20:37;5.65;;;3.25;;
5752;SDS011;2901;42.140;24.760;2022-07-22T13:23:02;3.83;;;3.53;;
5752;SDS011;2901;42.140;24.760;2022-07-22T13:25:28;3.47;;;3.15;;
5752;SDS011;2901;42.140;24.760;2022-07-22T13:27:53;5.00;;;3.15;;
5752;SDS011;2901;42.140;24.760;2022-07-22T13:30:19;10.25;;;3.13;;
5752;SDS011;2901;42.140;24.760;2022-07-22T13:32:45;5.78;;;3.20;;
5752;SDS011;2901;42.140;24.760;2022-07-22T13:35:10;7.05;;;3.92;;
5752;SDS011;2901;42.140;24.760;2022-07-22T13:37:35;4.65;;;3.40;;
5752;SDS011;2901;42.140;24.760;2022-07-22T13:40:02;5.57;;;3.13;;
5752;SDS011;2901;42.140;24.760;2022-07-22T13:42:28;4.20;;;3.05;;
5752;SDS011;2901;42.140;24.760;2022-07-22T13:44:53;3.25;;;3.05;;
5752;SDS011;2901;42.140;24.760;2022-07-22T13:47:20;4.15;;;2.70;;
5752;SDS011;2901;42.140;24.760;2022-07-22T13:49:45;4.80;;;2.85;;
5752;SDS011;2901;42.140;24.760;2022-07-22T13:52:11;3.72;;;3.17;;
5752;SDS011;2901;42.140;24.760;2022-07-22T13:54:37;3.22;;;3.03;;
5752;SDS011;2901;42.140;24.760;2022-07-22T13:57:03;7.97;;;3.15;;
5752;SDS011;2901;42.140;24.760;2022-07-22T13:59:30;2.85;;;2.70;;
5752;SDS011;2901;42.140;24.760;2022-07-22T14:01:56;3.30;;;2.95;;
5752;SDS011;2901;42.140;24.760;2022-07-22T14:04:23;3.38;;;3.10;;
5752;SDS011;2901;42.140;24.760;2022-07-22T14:06:48;6.88;;;3.20;;
5752;SDS011;2901;42.140;24.760;2022-07-22T14:09:14;3.95;;;3.10;;
5752;SDS011;2901;42.140;24.760;2022-07-22T14:11:39;4.97;;;3.53;;
5752;SDS011;2901;42.140;24.760;2022-07-22T14:14:05;3.67;;;3.22;;
5752;SDS011;2901;42.140;24.760;2022-07-22T14:16:31;5.25;;;3.33;;
5752;SDS011;2901;42.140;24.760;2022-07-22T14:19:04;3.30;;;3.10;;
5752;SDS011;2901;42.140;24.760;2022-07-22T14:21:31;4.40;;;3.20;;
5752;SDS011;2901;42.140;24.760;2022-07-22T14:23:57;5.13;;;3.05;;
5752;SDS011;2901;42.140;24.760;2022-07-22T14:26:22;3.47;;;3.28;;
5752;SDS011;2901;42.140;24.760;2022-07-22T14:28:48;3.72;;;3.28;;
5752;SDS011;2901;42.140;24.760;2022-07-22T14:31:13;3.83;;;3.60;;
5752;SDS011;2901;42.140;24.760;2022-07-22T14:33:39;3.40;;;3.10;;
5752;SDS011;2901;42.140;24.760;2022-07-22T14:36:05;6.80;;;3.83;;
5752;SDS011;2901;42.140;24.760;2022-07-22T14:38:30;5.88;;;3.83;;
5752;SDS011;2901;42.140;24.760;2022-07-22T14:40:56;3.70;;;3.50;;
5752;SDS011;2901;42.140;24.760;2022-07-22T14:43:21;3.20;;;3.10;;
5752;SDS011;2901;42.140;24.760;2022-07-22T14:45:47;5.13;;;2.97;;
5752;SDS011;2901;42.140;24.760;2022-07-22T14:48:12;3.30;;;3.10;;
5752;SDS011;2901;42.140;24.760;2022-07-22T14:50:38;4.03;;;3.67;;
5752;SDS011;2901;42.140;24.760;2022-07-22T14:53:03;3.90;;;3.60;;
5752;SDS011;2901;42.140;24.760;2022-07-22T14:55:29;4.53;;;4.10;;
5752;SDS011;2901;42.140;24.760;2022-07-22T14:57:54;3.95;;;3.65;;
5752;SDS011;2901;42.140;24.760;2022-07-22T15:00:19;9.20;;;3.95;;
5752;SDS011;2901;42.140;24.760;2022-07-22T15:02:45;3.47;;;3.28;;
5752;SDS011;2901;42.140;24.760;2022-07-22T15:05:10;5.32;;;4.20;;
5752;SDS011;2901;42.140;24.760;2022-07-22T15:07:36;5.22;;;4.93;;
5752;SDS011;2901;42.140;24.760;2022-07-22T15:10:01;6.00;;;3.72;;
5752;SDS011;2901;42.140;24.760;2022-07-22T15:12:27;9.15;;;4.03;;